Time;durP1;ratioP1;P1;durP2;ratioP2;P2;SDS_P1;SDS_P2;PMS_P1;PMS_P2;Temp;Humidity;BMP_temperature;BMP_pressure;BME280_temperature;BME280_humidity;BME280_pressure;Samples;Min_cycle;Max_cycle;Signal;HPM_P1;HPM_P2
2023/09/14 00:02:15;;;;;;;9.15;5.55;;;;;;;22.80;57.74;93588.97;4788597;29;20046;-93
2023/09/14 00:04:52;;;;;;;12.93;5.32;;;;;;;22.79;57.92;93593.72;4813961;29;20046;-93
2023/09/14 00:07:46;;;;;;;7.50;4.50;;;;;;;22.80;57.84;93597.97;4806356;29;20071;-93
2023/09/14 00:10:39;;;;;;;9.85;4.80;;;;;;;22.78;57.99;93595.00;4729843;30;20117;-91
2023/09/14 00:13:44;;;;;;;7.45;4.60;;;;;;;22.79;58.04;93593.72;4749888;30;20059;-93
2023/09/14 00:16:16;;;;;;;8.13;4.07;;;;;;;22.80;57.80;93591.72;4821884;23;20045;-93
2023/09/14 00:19:08;;;;;;;;;;;;;;;;;;;;;
2023/09/14 00:22:14;;;;;;;9.00;4.45;;;;;;;22.77;58.08;93598.25;4788558;29;20358;-93
2023/09/14 00:32:06;;;;;;;;;;;;;;;;;;;;;
2023/09/14 00:35:27;;;;;;;6.25;4.03;;;;;;;22.76;57.90;93599.53;4648391;30;20473;-92
2023/09/14 00:38:09;;;;;;;7.00;4.32;;;;;;;22.76;58.12;93600.28;4592136;30;20059;-93
2023/09/14 00:41:06;;;;;;;;;;;;;;;;;;;;;
2023/09/14 00:44:04;;;;;;;5.85;3.65;;;;;;;22.77;57.98;93598.25;4595246;30;20154;-93
2023/09/14 00:47:16;;;;;;;7.43;3.80;;;;;;;22.78;57.99;93599.78;4577377;30;20068;-92
2023/09/14 00:50:17;;;;;;;9.60;4.32;;;;;;;22.77;57.92;93590.78;4573344;31;20061;-92
2023/09/14 00:53:09;;;;;;;7.45;4.07;;;;;;;22.75;57.97;93593.28;4581211;31;20544;-93
2023/09/14 00:56:06;;;;;;;5.15;3.10;;;;;;;22.76;57.83;93602.28;4595285;30;20055;-90
2023/09/14 00:59:03;;;;;;;5.32;3.55;;;;;;;22.76;57.80;93594.78;4561793;31;20056;-92
2023/09/14 01:04:56;;;;;;;7.22;3.58;;;;;;;22.74;57.98;93591.06;4558672;31;20045;-92
2023/09/14 01:07:24;;;;;;;6.50;3.83;;;;;;;22.75;58.02;93603.56;4702552;24;20085;-92
2023/09/14 01:09:57;;;;;;;8.52;3.88;;;;;;;22.73;57.96;93597.88;4832781;29;20041;-92
2023/09/14 01:12:27;;;;;;;6.63;3.83;;;;;;;22.75;57.82;93592.53;4866605;29;20052;-91
2023/09/14 01:15:28;;;;;;;6.38;3.67;;;;;;;22.75;57.90;93601.56;4852564;29;20037;-91
2023/09/14 01:18:11;;;;;;;7.25;3.95;;;;;;;22.76;57.90;93599.53;4889295;29;20143;-91
2023/09/14 01:20:48;;;;;;;6.80;3.80;;;;;;;22.74;57.84;93600.06;4863135;29;20037;-93
2023/09/14 01:23:53;;;;;;;13.43;4.45;;;;;;;22.74;57.78;93600.06;4877027;29;20435;-91
2023/09/14 01:26:35;;;;;;;4.97;3.50;;;;;;;22.75;57.88;93600.81;4849569;29;20049;-91
2023/09/14 01:29:05;;;;;;;6.85;4.00;;;;;;;22.75;57.88;93593.28;4808836;29;20050;-90
2023/09/14 01:31:48;;;;;;;7.38;3.45;;;;;;;22.76;57.92;93602.28;4812993;29;20068;-92
2023/09/14 01:34:30;;;;;;;6.32;3.80;;;;;;;22.76;57.52;93597.53;4808790;29;20057;-93
2023/09/14 01:37:03;;;;;;;5.65;3.50;;;;;;;22.73;57.82;93587.59;4812279;29;20102;-93
2023/09/14 01:39:31;;;;;;;6.85;3.92;;;;;;;22.76;57.82;93577.50;4797173;29;20567;-91
2023/09/14 01:42:06;;;;;;;5.85;3.88;;;;;;;22.74;57.97;93585.56;4812600;29;20358;-92
2023/09/14 01:44:45;;;;;;;6.28;3.47;;;;;;;22.75;57.81;93595.31;4782947;29;20042;-92
2023/09/14 01:47:13;;;;;;;5.90;3.42;;;;;;;22.76;57.81;93594.78;4827385;29;20053;-92
2023/09/14 01:49:49;;;;;;;6.55;3.75;;;;;;;22.75;57.79;93595.31;4825838;29;20075;-91
2023/09/14 01:52:26;;;;;;;7.38;3.70;;;;;;;22.75;57.59;93587.78;4798266;29;20065;-91
2023/09/14 01:54:56;;;;;;;4.28;3.25;;;;;;;22.75;57.73;93589.78;4815243;29;20050;-92
2023/09/14 01:57:29;;;;;;;6.95;3.72;;;;;;;22.75;57.58;93585.03;4796094;29;20046;-92
2023/09/14 02:00:11;;;;;;;7.45;3.97;;;;;;;22.76;57.64;93588.53;4793833;29;20041;-92
2023/09/14 02:02:51;;;;;;;5.57;3.88;;;;;;;22.77;57.75;93590.00;4843379;23;20144;-93
2023/09/14 02:05:20;;;;;;;7.20;3.87;;;;;;;22.76;57.68;93588.53;4775828;29;20050;-92
2023/09/14 02:07:47;;;;;;;4.45;3.05;;;;;;;22.75;57.59;93579.50;4737839;30;20681;-91
2023/09/14 02:10:53;;;;;;;5.28;3.45;;;;;;;22.76;57.70;93586.50;4676536;30;20057;-93
2023/09/14 02:13:37;;;;;;;6.15;3.53;;;;;;;22.74;57.70;93580.03;4685432;30;20539;-91
2023/09/14 02:16:12;;;;;;;5.55;3.50;;;;;;;22.74;57.84;93593.81;4691920;30;20040;-92
2023/09/14 02:19:16;;;;;;;7.00;3.95;;;;;;;22.75;57.81;93587.03;4648981;30;20057;-93
2023/09/14 02:22:03;;;;;;;5.25;3.17;;;;;;;22.75;57.58;93584.28;4683602;30;20117;-92
2023/09/14 02:24:32;;;;;;;5.80;3.58;;;;;;;22.76;57.64;93585.75;4664089;30;20052;-92
2023/09/14 02:27:23;;;;;;;6.53;3.40;;;;;;;22.74;57.62;93582.78;4667939;30;20053;-92
2023/09/14 02:29:59;;;;;;;4.93;3.70;;;;;;;22.74;57.71;93585.56;4645055;30;20424;-93
2023/09/14 02:32:50;;;;;;;6.45;3.47;;;;;;;22.75;57.59;93587.78;4627967;30;20055;-91
2023/09/14 02:35:27;;;;;;;;;;;;;;;22.76;57.42;93589.25;4658259;30;20066;-92
2023/09/14 02:38:11;;;;;;;7.55;3.92;;;;;;;22.74;57.56;93591.06;4694185;30;19927;-91
2023/09/14 02:40:46;;;;;;;6.70;4.00;;;;;;;22.73;57.52;93586.84;4695073;30;20098;-91
2023/09/14 02:43:22;;;;;;;6.75;3.55;;;;;;;22.74;57.46;93591.06;4741113;29;20082;-92
2023/09/14 02:46:00;;;;;;;5.25;3.35;;;;;;;22.73;57.77;93581.34;4749334;30;20046;-92
2023/09/14 02:48:27;;;;;;;4.60;3.22;;;;;;;22.75;57.63;93598.06;4770159;29;20645;-91
2023/09/14 02:51:24;;;;;;;5.28;3.33;;;;;;;22.72;57.52;93588.88;4736125;30;20039;-92
2023/09/14 02:54:04;;;;;;;6.70;3.30;;;;;;;22.73;57.68;93584.84;4767095;29;20161;-93
2023/09/14 02:56:36;;;;;;;5.28;3.17;;;;;;;22.73;57.60;93584.84;4767841;29;20099;-91
2023/09/14 02:59:16;;;;;;;4.80;3.20;;;;;;;22.72;57.63;93594.38;4797488;29;20058;-92
2023/09/14 03:02:06;;;;;;;4.90;3.90;;;;;;;22.73;57.63;93595.13;4763637;30;20054;-92
2023/09/14 03:04:38;;;;;;;6.55;4.10;;;;;;;22.72;57.63;93599.16;4756709;30;20055;-92
2023/09/14 03:07:06;;;;;;;7.47;3.70;;;;;;;22.75;57.57;93611.84;4702829;30;20062;-91
2023/09/14 03:09:41;;;;;;;6.50;4.00;;;;;;;22.73;57.58;93606.88;4762811;30;20044;-92
2023/09/14 03:12:21;;;;;;;6.22;3.53;;;;;;;22.74;57.72;93604.84;4706114;30;20051;-93
2023/09/14 03:15:36;;;;;;;5.20;3.57;;;;;;;22.74;57.50;93610.34;4682457;30;20737;-91
2023/09/14 03:18:37;;;;;;;4.97;3.50;;;;;;;22.74;57.45;93613.13;4725175;30;20284;-91
2023/09/14 03:21:37;;;;;;;6.65;3.80;;;;;;;22.76;57.62;93616.81;4717621;30;20060;-92
2023/09/14 03:24:26;;;;;;;5.10;3.60;;;;;;;22.74;57.58;93610.34;4706460;30;20068;-90
2023/09/14 03:26:56;;;;;;;8.05;4.47;;;;;;;22.75;57.80;93618.09;4693234;30;20034;-92
2023/09/14 03:29:22;;;;;;;6.18;3.40;;;;;;;22.82;57.43;93611.97;4715224;30;20065;-90
2023/09/14 03:31:52;;;;;;;6.55;3.28;;;;;;;22.91;57.06;93616.28;4720702;30;20048;-91
2023/09/14 03:34:18;;;;;;;;;;;;;;;22.77;57.03;93618.31;4723942;30;20058;-88
2023/09/14 03:36:51;;;;;;;9.82;5.35;;;;;;;22.69;57.38;93622.25;4750952;30;19949;-92
2023/09/14 03:39:17;;;;;;;7.78;6.03;;;;;;;22.54;57.59;93631.06;4717478;30;20052;-90
2023/09/14 03:41:42;;;;;;;10.27;8.10;;;;;;;22.44;57.65;93630.78;4737573;30;20048;-91
2023/09/14 03:44:27;;;;;;;46.72;37.30;;;;;;;22.42;57.75;93629.84;4731255;30;20071;-92
2023/09/14 03:46:55;;;;;;;23.67;17.17;;;;;;;22.37;57.79;93636.19;4736445;30;20118;-91
2023/09/14 03:49:42;;;;;;;17.27;12.32;;;;;;;22.19;58.39;93630.28;4716207;30;20052;-89
2023/09/14 03:52:27;;;;;;;13.52;9.77;;;;;;;22.14;58.46;93633.13;4799652;29;20077;-91
2023/09/14 03:54:54;;;;;;;14.15;8.80;;;;;;;22.04;58.69;93632.09;4793367;29;20090;-90
2023/09/14 03:57:20;;;;;;;21.08;11.60;;;;;;;21.86;59.19;93634.38;4795280;29;20046;-91
2023/09/14 03:59:47;;;;;;;23.65;14.20;;;;;;;21.80;59.37;93641.25;4858993;23;20049;-92
2023/09/14 04:02:14;;;;;;;25.80;10.45;;;;;;;21.81;59.64;93640.00;4840011;29;20058;-91
2023/09/14 04:04:40;;;;;;;53.38;13.38;;;;;;;21.83;60.08;93638.19;4834784;29;20220;-90
2023/09/14 04:07:06;;;;;;;27.58;10.70;;;;;;;21.82;59.96;93642.22;4814000;29;20045;-90
2023/09/14 04:09:31;;;;;;;45.78;12.90;;;;;;;21.88;59.46;93631.09;4840350;29;20052;-90
2023/09/14 04:11:57;;;;;;;55.60;20.63;;;;;;;21.80;59.94;93639.25;4819207;29;20045;-94
2023/09/14 04:14:22;;;;;;;54.95;28.30;;;;;;;21.78;60.36;93641.78;4829877;29;20056;-88
2023/09/14 04:16:51;;;;;;;93.45;27.58;;;;;;;21.75;60.35;93636.59;4846649;29;20038;-87
2023/09/14 04:19:17;;;;;;;46.10;16.65;;;;;;;21.77;60.04;93636.81;4852796;29;20046;-87
2023/09/14 04:21:44;;;;;;;31.23;13.85;;;;;;;21.71;59.88;93647.91;4833272;29;20090;-87
2023/09/14 04:24:10;;;;;;;30.00;13.07;;;;;;;21.67;60.07;93644.72;4864815;29;20057;-88
2023/09/14 04:26:38;;;;;;;33.75;15.60;;;;;;;21.65;60.06;93652.03;4850894;29;20117;-90
2023/09/14 04:29:03;;;;;;;36.33;16.48;;;;;;;21.66;60.00;93664.50;4813173;29;20050;-88
2023/09/14 04:31:29;;;;;;;32.90;13.55;;;;;;;21.63;60.23;93658.06;4810679;29;20046;-88
2023/09/14 04:33:54;;;;;;;42.13;15.02;;;;;;;21.53;60.56;93670.72;4818174;29;20042;-89
2023/09/14 04:36:20;;;;;;;44.33;20.67;;;;;;;21.46;60.71;93669.31;4822422;29;20052;-91
2023/09/14 04:38:45;;;;;;;45.95;18.48;;;;;;;21.48;60.83;93666.78;4806003;29;20382;-90
2023/09/14 04:41:11;;;;;;;170.13;38.33;;;;;;;21.54;60.72;93672.94;4826826;29;20136;-87
2023/09/14 04:43:36;;;;;;;35.58;15.10;;;;;;;21.46;60.88;93677.56;4817719;29;20098;-91
2023/09/14 04:46:04;;;;;;;38.30;17.42;;;;;;;21.43;60.98;93684.16;4831618;29;20103;-90
2023/09/14 04:48:30;;;;;;;29.88;15.70;;;;;;;21.44;60.81;93671.84;4829729;24;20050;-91
2023/09/14 04:50:58;;;;;;;34.55;20.27;;;;;;;21.37;61.32;93677.25;4815600;29;20042;-91
2023/09/14 04:53:24;;;;;;;49.97;25.98;;;;;;;21.28;61.61;93681.13;4810633;29;20054;-91
2023/09/14 04:55:50;;;;;;;71.97;37.10;;;;;;;21.37;61.42;93672.47;4795947;29;20043;-90
2023/09/14 04:58:17;;;;;;;55.60;30.90;;;;;;;21.34;61.33;93681.03;4827466;29;20549;-90
2023/09/14 05:00:43;;;;;;;70.47;33.97;;;;;;;21.39;60.98;93680.94;4812447;29;20042;-90
2023/09/14 05:03:08;;;;;;;60.95;27.88;;;;;;;21.47;61.07;93681.06;4803983;29;20095;-90
2023/09/14 05:05:34;;;;;;;39.13;21.45;;;;;;;21.43;61.07;93681.41;4775110;29;20054;-90
2023/09/14 05:08:00;;;;;;;34.55;19.13;;;;;;;21.42;60.77;93687.41;4801390;29;20058;-89
2023/09/14 05:10:28;;;;;;;27.20;16.63;;;;;;;21.33;61.11;93688.53;4745556;30;20093;-90
2023/09/14 05:12:54;;;;;;;32.33;16.17;;;;;;;21.31;61.30;93691.06;4753538;24;20073;-89
2023/09/14 05:15:27;;;;;;;20.83;13.25;;;;;;;21.44;60.75;93696.59;4818210;29;20079;-90
2023/09/14 05:17:53;;;;;;;18.35;11.63;;;;;;;21.36;61.15;93698.50;4822198;29;20054;-91
2023/09/14 05:20:19;;;;;;;22.00;11.70;;;;;;;21.31;61.41;93702.06;4808192;29;20054;-89
2023/09/14 05:22:48;;;;;;;40.80;20.42;;;;;;;21.36;61.31;93706.00;4793573;29;20095;-89
2023/09/14 05:25:14;;;;;;;34.88;17.60;;;;;;;21.29;61.50;93706.59;4787082;29;20137;-91
2023/09/14 05:27:40;;;;;;;44.90;21.85;;;;;;;21.18;61.72;93716.47;4795699;29;20410;-91
2023/09/14 05:30:06;;;;;;;45.72;23.90;;;;;;;21.19;61.88;93712.47;4807996;29;20061;-91
2023/09/14 05:32:32;;;;;;;28.42;18.55;;;;;;;21.18;62.11;93713.72;4794284;29;20525;-92
2023/09/14 05:35:16;;;;;;;30.42;14.68;;;;;;;21.17;61.88;93717.75;4795578;29;20054;-93
2023/09/14 05:37:43;;;;;;;24.08;15.48;;;;;;;21.10;62.42;93712.09;4807160;29;20050;-91
2023/09/14 05:40:12;;;;;;;38.83;23.17;;;;;;;21.14;62.24;93724.28;4797283;29;20421;-91
2023/09/14 05:42:39;;;;;;;53.80;27.08;;;;;;;21.20;62.04;93718.75;4794239;29;20050;-89
2023/09/14 05:45:11;;;;;;;51.28;28.83;;;;;;;21.05;62.47;93716.41;4787862;29;20046;-94
2023/09/14 05:47:37;;;;;;;51.83;30.75;;;;;;;21.00;62.75;93724.75;4781363;29;20561;-90
2023/09/14 05:50:03;;;;;;;47.55;31.27;;;;;;;20.90;63.01;93729.84;4820506;29;20642;-91
2023/09/14 05:52:30;;;;;;;52.38;36.72;;;;;;;20.85;62.81;93734.16;4826048;29;20053;-94
2023/09/14 05:54:56;;;;;;;38.95;25.50;;;;;;;20.85;63.02;93725.16;4840950;29;20053;-88
2023/09/14 05:57:24;;;;;;;47.30;22.58;;;;;;;20.83;63.12;93731.19;4838221;29;20050;-89
2023/09/14 05:59:49;;;;;;;58.45;26.13;;;;;;;20.89;63.25;93725.63;4813356;29;20041;-87
2023/09/14 06:02:16;;;;;;;69.03;27.50;;;;;;;20.82;63.72;93726.19;4839141;29;20389;-88
2023/09/14 06:04:41;;;;;;;43.38;18.52;;;;;;;20.81;63.35;93725.47;4812463;29;20057;-90
2023/09/14 06:07:08;;;;;;;28.20;15.70;;;;;;;20.74;63.81;93726.06;4813698;29;20074;-91
2023/09/14 06:09:33;;;;;;;26.83;14.38;;;;;;;20.74;64.11;93730.81;4828961;29;20048;-87
2023/09/14 06:12:01;;;;;;;22.48;13.25;;;;;;;20.70;63.85;93730.38;4842757;29;20057;-89
2023/09/14 06:14:29;;;;;;;16.38;11.50;;;;;;;20.80;64.15;93740.44;4854786;29;20049;-92
2023/09/14 06:16:55;;;;;;;17.52;12.55;;;;;;;20.73;63.85;93740.31;4820161;29;20180;-91
2023/09/14 06:19:21;;;;;;;59.85;36.63;;;;;;;20.71;64.30;93734.59;4820311;29;20533;-91
2023/09/14 06:21:51;;;;;;;24.85;19.48;;;;;;;20.70;64.43;93733.09;4830889;29;20042;-90
2023/09/14 06:24:17;;;;;;;24.77;19.40;;;;;;;20.82;64.20;93739.94;4816186;29;20044;-88
2023/09/14 06:26:44;;;;;;;13.13;11.10;;;;;;;21.01;63.59;93739.94;4843386;29;20253;-91
2023/09/14 06:29:13;;;;;;;12.48;10.02;;;;;;;20.92;64.11;93743.06;4807609;29;20521;-89
2023/09/14 06:31:38;;;;;;;44.45;20.42;;;;;;;20.97;63.70;93743.00;4839804;29;20129;-90
2023/09/14 06:34:04;;;;;;;84.40;49.15;;;;;;;21.04;63.46;93755.41;4823400;29;20053;-88
2023/09/14 06:36:33;;;;;;;53.05;35.13;;;;;;;21.02;63.47;93755.91;4812309;29;20154;-91
2023/09/14 06:39:05;;;;;;;45.08;25.77;;;;;;;20.97;63.57;93756.75;4836639;29;20049;-91
2023/09/14 06:42:00;;;;;;;41.70;26.65;;;;;;;20.92;63.87;93756.81;4832166;29;20428;-94
2023/09/14 06:44:32;;;;;;;36.58;20.80;;;;;;;21.01;63.44;93759.19;4821450;23;20129;-88
2023/09/14 06:46:57;;;;;;;29.33;17.75;;;;;;;20.99;63.43;93756.25;4823181;29;20056;-93
2023/09/14 06:49:25;;;;;;;20.02;14.00;;;;;;;20.93;64.00;93764.53;4777252;29;20047;-89
2023/09/14 06:52:08;;;;;;;32.20;15.98;;;;;;;20.94;63.99;93763.28;4780363;29;20062;-92
2023/09/14 06:54:45;;;;;;;45.95;28.48;;;;;;;21.06;63.77;93758.38;4788488;29;20055;-94
2023/09/14 06:57:10;;;;;;;35.55;19.73;;;;;;;21.08;63.39;93764.09;4781214;29;20093;-93
2023/09/14 06:59:37;;;;;;;32.97;18.95;;;;;;;21.01;63.71;93762.69;4802169;29;20087;-90
2023/09/14 07:02:02;;;;;;;40.58;17.95;;;;;;;21.01;64.04;93764.69;4827338;29;20054;-92
2023/09/14 07:04:31;;;;;;;35.92;18.50;;;;;;;21.03;63.12;93762.16;4795311;29;20110;-90
2023/09/14 07:06:57;;;;;;;19.52;13.05;;;;;;;21.03;63.43;93765.66;4793989;29;20046;-91
2023/09/14 07:09:23;;;;;;;25.13;14.90;;;;;;;20.99;63.52;93772.72;4776360;29;20577;-93
2023/09/14 07:11:48;;;;;;;35.35;18.42;;;;;;;20.97;63.41;93778.00;4797324;29;20119;-93
2023/09/14 07:14:14;;;;;;;43.47;17.23;;;;;;;21.02;62.87;93774.41;4824867;23;20065;-90
2023/09/14 07:16:39;;;;;;;46.28;15.35;;;;;;;21.02;62.80;93775.16;4856283;29;20108;-90
2023/09/14 07:19:13;;;;;;;25.90;12.30;;;;;;;21.07;62.57;93777.09;4889298;24;20057;-91
2023/09/14 07:22:12;;;;;;;23.70;12.35;;;;;;;21.09;62.44;93777.31;4827875;29;20038;-93
2023/09/14 07:25:08;;;;;;;20.08;10.25;;;;;;;21.08;62.36;93775.84;4814780;29;20053;-92
2023/09/14 07:30:15;;;;;;;61.13;29.55;;;;;;;;;;5679353;24;20062;-91
2023/09/14 07:32:42;;;;;;;61.55;28.73;;;;;;;21.28;61.86;93784.84;4859258;29;20055;-90
2023/09/14 07:35:08;;;;;;;56.15;28.38;;;;;;;21.27;61.88;93794.38;4883819;24;20049;-93
2023/09/14 07:37:34;;;;;;;56.25;29.65;;;;;;;21.34;61.31;93791.78;4856805;29;20068;-93
2023/09/14 07:39:59;;;;;;;67.18;32.33;;;;;;;21.40;61.48;93789.69;4862519;29;20076;-89
2023/09/14 07:42:25;;;;;;;67.93;32.72;;;;;;;21.29;61.35;93789.84;4855554;29;20050;-93
2023/09/14 07:45:03;;;;;;;68.82;35.17;;;;;;;21.36;61.26;93794.00;4883468;29;20045;-91
2023/09/14 07:47:43;;;;;;;58.70;33.03;;;;;;;21.41;61.20;93795.94;4863428;23;20038;-90
2023/09/14 07:50:08;;;;;;;70.68;39.78;;;;;;;21.43;60.76;93790.66;4826098;29;20054;-93
2023/09/14 07:53:10;;;;;;;74.10;43.83;;;;;;;21.42;60.88;93797.44;4806294;29;20061;-93
2023/09/14 07:55:59;;;;;;;84.30;52.20;;;;;;;21.48;60.98;93798.81;4791844;29;20073;-92
2023/09/14 07:58:57;;;;;;;69.30;40.75;;;;;;;21.46;61.04;93795.09;4901053;24;20050;-92
2023/09/14 08:01:36;;;;;;;34.03;19.80;;;;;;;21.45;61.24;93801.88;4784048;29;20050;-93
2023/09/14 08:06:42;;;;;;;29.15;17.05;;;;;;;21.45;60.68;93797.09;5019545;23;20044;-91
2023/09/14 08:11:54;;;;;;;14.25;11.85;;;;;;;21.35;62.04;93803.53;4927899;23;20053;-89
2023/09/14 08:14:47;;;;;;;21.35;14.98;;;;;;;21.33;61.28;93814.28;4815443;29;20054;-91
2023/09/14 08:17:46;;;;;;;16.85;12.38;;;;;;;21.17;61.06;93819.47;4754148;30;20094;-89
2023/09/14 08:20:13;;;;;;;38.05;26.63;;;;;;;21.03;61.02;93817.88;4784999;29;20057;-91
2023/09/14 08:22:38;;;;;;;36.75;20.52;;;;;;;20.99;62.11;93824.94;4764978;29;20603;-91
2023/09/14 08:25:06;;;;;;;26.60;16.70;;;;;;;20.94;61.50;93828.50;4768450;29;20065;-92
2023/09/14 08:27:32;;;;;;;45.28;26.75;;;;;;;20.87;61.92;93827.06;4760431;30;20462;-91
2023/09/14 08:30:04;;;;;;;36.05;23.23;;;;;;;20.80;61.86;93825.63;4772140;30;20047;-90
2023/09/14 08:32:50;;;;;;;28.52;17.85;;;;;;;20.80;62.10;93827.63;4807303;29;20058;-91
2023/09/14 08:35:36;;;;;;;24.10;14.93;;;;;;;20.69;60.79;93822.28;4804742;29;20043;-92
2023/09/14 08:39:00;;;;;;;;;;;;;;;;;;;;;
2023/09/14 08:41:41;;;;;;;23.83;14.02;;;;;;;20.64;60.92;93823.06;4930065;23;20344;-88
2023/09/14 08:44:15;;;;;;;37.58;16.77;;;;;;;20.74;60.81;93821.47;4870678;29;20051;-91
2023/09/14 08:46:44;;;;;;;19.65;12.30;;;;;;;20.70;62.24;93824.50;4891400;29;20044;-93
2023/09/14 08:49:16;;;;;;;22.48;13.57;;;;;;;20.65;62.65;93822.56;4863097;23;20407;-91
2023/09/14 08:52:36;;;;;;;;;;;;;;;;;;;;;
2023/09/14 08:55:02;;;;;;;;;;;;;;;20.79;61.98;93826.91;4833954;29;20148;-93
2023/09/14 08:57:37;;;;;;;22.88;15.38;;;;;;;20.76;61.30;93819.72;4823781;29;19921;-92
2023/09/14 09:00:14;;;;;;;20.73;15.30;;;;;;;20.67;62.27;93822.03;4800941;29;20074;-94
2023/09/14 09:02:40;;;;;;;20.65;13.65;;;;;;;20.71;62.30;93817.75;4805507;29;20038;-93
2023/09/14 09:05:12;;;;;;;23.90;12.80;;;;;;;20.71;61.56;93815.00;4821533;29;20050;-92
2023/09/14 09:07:39;;;;;;;26.45;17.77;;;;;;;20.76;62.06;93827.94;4794307;29;20052;-92
2023/09/14 09:10:20;;;;;;;27.13;17.90;;;;;;;20.70;61.72;93821.03;4793982;29;20059;-92
2023/09/14 09:15:15;;;;;;;26.55;16.65;;;;;;;20.75;62.08;93820.97;4864676;29;20052;-91
2023/09/14 09:17:42;;;;;;;26.83;12.45;;;;;;;20.68;62.49;93823.53;4845916;29;20345;-94
2023/09/14 09:20:24;;;;;;;16.00;11.10;;;;;;;20.52;62.35;93831.44;4858490;29;20082;-95
2023/09/14 09:22:59;;;;;;;21.42;11.93;;;;;;;20.55;62.36;93820.69;4812985;29;20105;-92
2023/09/14 09:25:55;;;;;;;20.35;13.52;;;;;;;20.61;61.83;93821.34;4909126;23;20046;-91
2023/09/14 09:28:33;;;;;;;16.08;11.68;;;;;;;20.69;61.69;93823.03;4821035;29;20049;-92
2023/09/14 09:31:03;;;;;;;19.40;11.15;;;;;;;20.75;60.67;93826.47;4793757;29;20038;-93
2023/09/14 09:33:42;;;;;;;22.90;13.13;;;;;;;20.82;60.60;93823.13;4842358;24;20053;-93
2023/09/14 09:36:28;;;;;;;19.63;12.65;;;;;;;20.85;60.64;93827.59;4823937;29;20048;-91
2023/09/14 09:38:58;;;;;;;20.73;11.80;;;;;;;20.83;60.58;93826.59;4864792;29;20042;-91
2023/09/14 09:41:24;;;;;;;20.00;12.65;;;;;;;20.92;60.33;93826.25;4835994;29;20049;-93
2023/09/14 09:43:52;;;;;;;25.00;12.68;;;;;;;20.98;60.40;93824.22;4790860;24;20042;-91
2023/09/14 09:46:25;;;;;;;18.65;9.32;;;;;;;20.97;60.20;93824.72;4851495;29;20058;-90
2023/09/14 09:48:59;;;;;;;19.55;11.07;;;;;;;20.95;59.59;93835.50;4841113;29;20052;-92
2023/09/14 09:51:29;;;;;;;12.48;8.98;;;;;;;20.96;59.93;93825.97;4806188;29;20068;-93
2023/09/14 09:54:20;;;;;;;;;;;;;;;20.96;60.43;93825.97;4797164;29;20067;-91
2023/09/14 09:57:05;;;;;;;13.25;9.23;;;;;;;20.99;61.68;93831.19;4807347;29;20027;-92
2023/09/14 09:59:34;;;;;;;43.00;13.40;;;;;;;20.96;61.55;93823.22;4801667;29;20085;-90
2023/09/14 10:02:26;;;;;;;19.30;10.48;;;;;;;20.96;61.86;93825.97;4807420;29;20042;-92
2023/09/14 10:04:54;;;;;;;17.38;9.20;;;;;;;21.01;60.71;93823.16;4803426;29;20045;-94
2023/09/14 10:07:23;;;;;;;13.25;8.48;;;;;;;20.89;60.82;93824.56;4793924;29;20074;-92
2023/09/14 10:09:55;;;;;;;8.75;7.80;;;;;;;20.97;60.78;93821.97;4811660;29;20803;-91
2023/09/14 10:12:26;;;;;;;10.30;7.63;;;;;;;20.99;60.57;93827.69;4813101;24;20054;-93
2023/09/14 10:14:53;;;;;;;170.35;152.02;;;;;;;20.98;60.51;93828.97;4780428;29;20050;-92
2023/09/14 10:17:21;;;;;;;57.63;51.53;;;;;;;21.08;60.58;93830.81;4800017;29;20050;-93
2023/09/14 10:19:48;;;;;;;27.83;20.23;;;;;;;21.13;59.84;93823.78;4775712;29;20053;-91
2023/09/14 10:22:15;;;;;;;12.52;9.38;;;;;;;21.09;61.05;93821.31;4799795;29;20581;-93
2023/09/14 10:24:41;;;;;;;9.55;8.15;;;;;;;21.07;61.31;93821.09;4776035;29;20038;-93
2023/09/14 10:27:07;;;;;;;7.95;7.15;;;;;;;21.01;61.52;93820.41;4788405;29;20579;-94
2023/09/14 10:29:36;;;;;;;9.55;7.63;;;;;;;20.93;61.67;93816.75;4804383;29;20057;-93
2023/09/14 10:32:02;;;;;;;7.47;6.68;;;;;;;20.99;61.95;93827.69;4771324;29;20049;-93
2023/09/14 10:34:29;;;;;;;8.35;6.85;;;;;;;20.98;61.38;93818.72;4798177;29;20162;-91
2023/09/14 10:36:54;;;;;;;7.65;6.80;;;;;;;20.98;61.70;93817.97;4774747;29;20062;-93
2023/09/14 10:39:22;;;;;;;53.80;41.47;;;;;;;21.01;61.16;93816.91;4772699;29;20051;-91
2023/09/14 10:41:47;;;;;;;9.48;8.48;;;;;;;21.01;60.35;93811.41;4771118;29;20039;-92
2023/09/14 10:44:14;;;;;;;8.60;7.68;;;;;;;21.05;61.42;93817.34;4758396;29;20051;-92
2023/09/14 10:46:42;;;;;;;18.33;9.45;;;;;;;21.15;61.25;93808.25;4771376;29;20071;-91
2023/09/14 10:49:08;;;;;;;9.73;8.73;;;;;;;21.22;60.42;93817.19;4763969;29;20464;-91
2023/09/14 10:51:33;;;;;;;7.78;7.07;;;;;;;;;;4779096;29;20378;-92
2023/09/14 10:54:00;;;;;;;13.30;7.23;;;;;;;21.32;60.17;93804.56;4800570;29;20057;-92
2023/09/14 10:56:33;;;;;;;14.35;7.40;;;;;;;21.30;60.18;93809.81;4785641;29;20306;-93
2023/09/14 10:58:59;;;;;;;10.50;7.97;;;;;;;21.32;60.13;93813.56;4798750;29;20046;-93
2023/09/14 11:01:28;;;;;;;9.38;7.63;;;;;;;21.32;59.67;93805.31;4784308;29;20044;-92
2023/09/14 11:04:23;;;;;;;18.23;9.13;;;;;;;21.36;59.74;93810.50;4773399;29;20046;-92
2023/09/14 11:06:58;;;;;;;18.67;10.43;;;;;;;21.36;59.26;93803.00;4835536;24;20052;-92
2023/09/14 11:10:01;;;;;;;30.75;14.55;;;;;;;21.44;59.26;93803.88;4756418;29;20050;-90
2023/09/14 11:12:28;;;;;;;70.10;32.75;;;;;;;21.45;59.19;93796.38;4815111;29;20049;-92
2023/09/14 11:15:14;;;;;;;85.47;39.42;;;;;;;21.38;59.20;93789.47;4808188;29;20053;-93
2023/09/14 11:17:43;;;;;;;67.32;32.22;;;;;;;21.45;59.81;93802.59;4805177;29;20062;-92
2023/09/14 11:20:28;;;;;;;62.78;31.63;;;;;;;21.45;60.60;93805.34;4804097;29;20305;-89
2023/09/14 11:22:59;;;;;;;67.57;36.65;;;;;;;21.42;60.80;93800.19;4811518;29;20051;-92
2023/09/14 11:25:36;;;;;;;57.00;31.92;;;;;;;21.47;60.77;93808.34;4792006;29;20062;-93
2023/09/14 11:28:27;;;;;;;55.67;27.60;;;;;;;21.46;60.86;93795.09;4902474;23;20058;-91
2023/09/14 11:30:52;;;;;;;65.70;27.40;;;;;;;21.44;60.99;93798.38;4796056;29;20110;-93
2023/09/14 11:33:20;;;;;;;49.05;24.33;;;;;;;21.52;60.69;93785.50;4807637;29;20163;-93
2023/09/14 11:35:55;;;;;;;50.25;28.02;;;;;;;21.54;60.54;93776.75;4819388;29;20090;-91
2023/09/14 11:38:24;;;;;;;54.83;26.20;;;;;;;21.54;60.08;93780.22;4807861;29;20054;-93
2023/09/14 11:40:50;;;;;;;51.65;27.08;;;;;;;21.50;60.28;93779.78;4811392;29;20035;-92
2023/09/14 11:43:38;;;;;;;55.33;30.50;;;;;;;21.59;60.22;93773.16;4800224;29;20050;-93
2023/09/14 11:46:14;;;;;;;41.03;22.27;;;;;;;21.66;59.98;93782.81;4850706;23;20063;-92
2023/09/14 11:48:45;;;;;;;37.92;19.67;;;;;;;21.63;60.01;93775.63;4824471;29;20438;-94
2023/09/14 11:51:48;;;;;;;45.03;23.95;;;;;;;21.59;59.23;93775.19;4849135;29;20107;-92
2023/09/14 12:04:27;;;;;;;31.58;20.15;;;;;;;21.63;58.39;93770.88;4872375;23;20473;-90
2023/09/14 12:06:58;;;;;;;25.00;16.60;;;;;;;21.68;57.58;93772.03;4849889;29;20048;-95
2023/09/14 12:09:38;;;;;;;20.90;14.00;;;;;;;21.62;57.82;93765.88;4868205;29;20053;-92
2023/09/14 12:12:14;;;;;;;18.70;11.98;;;;;;;21.55;58.99;93764.47;4827315;29;20057;-93
2023/09/14 12:18:40;;;;;;;77.20;39.78;;;;;;;21.51;58.57;93764.78;4767745;29;20085;-91
2023/09/14 12:21:25;;;;;;;64.43;36.20;;;;;;;21.50;58.35;93768.03;4776176;29;20055;-89
2023/09/14 12:23:52;;;;;;;44.58;27.80;;;;;;;21.51;57.91;93770.28;4797525;29;20080;-90
2023/09/14 12:26:24;;;;;;;30.88;21.35;;;;;;;21.51;57.99;93764.78;4736183;30;20064;-94
2023/09/14 12:28:57;;;;;;;38.63;22.17;;;;;;;21.51;57.91;93769.53;4837536;23;20078;-92
2023/09/14 12:31:51;;;;;;;30.23;18.63;;;;;;;21.53;57.69;93765.00;4815570;29;20110;-91
2023/09/14 12:34:35;;;;;;;44.15;25.80;;;;;;;21.50;58.31;93770.78;4841283;29;20042;-93
2023/09/14 12:37:03;;;;;;;30.55;19.13;;;;;;;21.64;58.42;93766.84;4825101;29;20041;-91
2023/09/14 12:39:35;;;;;;;31.15;18.05;;;;;;;21.64;58.62;93771.59;4798140;29;20084;-94
2023/09/14 12:42:20;;;;;;;31.35;18.30;;;;;;;21.59;58.83;93766.91;4786157;29;20523;-91
2023/09/14 12:44:46;;;;;;;23.58;15.75;;;;;;;21.69;58.86;93782.50;4813815;29;20051;-89